Time;durP1;ratioP1;P1;durP2;ratioP2;P2;SDS_P1;SDS_P2;PMS_P1;PMS_P2;Temp;Humidity;BMP_temperature;BMP_pressure;BME280_temperature;BME280_humidity;BME280_pressure;Samples;Min_cycle;Max_cycle;Signal;HPM_P1;HPM_P2
2024/03/16 00:00:34;;;;;;;200.70;190.82;;;;;;;;;;5112266;28;20079;-54
2024/03/16 00:02:59;;;;;;;199.18;189.35;;;;;;;;;;5078573;27;20028;-52
2024/03/16 00:05:25;;;;;;;192.82;183.38;;;;;;;;;;5115899;27;20047;-53
2024/03/16 00:07:51;;;;;;;206.70;196.50;;;;;;;;;;5115859;27;20043;-54
2024/03/16 00:10:16;;;;;;;215.77;205.25;;;;;;;;;;5116660;27;20034;-51
2024/03/16 00:12:42;;;;;;;211.75;201.40;;;;;;;;;;5114925;27;20031;-53
2024/03/16 00:15:07;;;;;;;210.43;200.10;;;;;;;;;;5115806;27;20067;-52
2024/03/16 00:17:33;;;;;;;209.70;199.38;;;;;;;;;;5102627;27;20354;-52
2024/03/16 00:19:58;;;;;;;211.02;200.63;;;;;;;;;;5115615;27;20027;-50
2024/03/16 00:22:24;;;;;;;212.18;201.75;;;;;;;;;;5114706;27;20698;-56
2024/03/16 00:24:49;;;;;;;213.10;202.65;;;;;;;;;;5097739;27;20647;-56
2024/03/16 00:27:15;;;;;;;205.68;195.45;;;;;;;;;;5115669;27;20039;-51
2024/03/16 00:29:40;;;;;;;223.30;212.32;;;;;;;;;;5114756;27;20046;-49
2024/03/16 00:32:06;;;;;;;207.60;197.43;;;;;;;;;;5112108;27;20126;-50
2024/03/16 00:34:31;;;;;;;219.10;208.40;;;;;;;;;;5115199;27;20054;-53
2024/03/16 00:36:57;;;;;;;217.30;206.65;;;;;;;;;;5115127;27;20027;-53
2024/03/16 00:39:23;;;;;;;218.60;207.90;;;;;;;;;;5112787;27;20027;-50
2024/03/16 00:41:49;;;;;;;224.70;213.70;;;;;;;;;;5116960;27;20035;-56
2024/03/16 00:44:15;;;;;;;231.50;220.10;;;;;;;;;;5113112;27;20586;-56
2024/03/16 00:46:40;;;;;;;224.27;213.27;;;;;;;;;;5117290;27;20162;-54
2024/03/16 00:49:05;;;;;;;228.73;217.50;;;;;;;;;;5113488;27;20027;-50
2024/03/16 00:51:32;;;;;;;204.00;193.95;;;;;;;;;;5111850;27;20224;-53
2024/03/16 00:53:58;;;;;;;219.55;208.73;;;;;;;;;;5113993;27;20098;-54
2024/03/16 00:56:24;;;;;;;221.65;210.75;;;;;;;;;;5098028;27;20050;-53
2024/03/16 00:58:49;;;;;;;219.45;208.63;;;;;;;;;;5115168;27;20038;-55
2024/03/16 01:01:14;;;;;;;212.77;202.27;;;;;;;;;;5113470;27;20570;-55
2024/03/16 01:03:40;;;;;;;227.30;216.15;;;;;;;;;;5113897;27;20024;-55
2024/03/16 01:06:05;;;;;;;217.90;207.18;;;;;;;;;;5095637;27;20593;-53
2024/03/16 01:08:30;;;;;;;210.02;199.65;;;;;;;;;;5112496;27;20397;-53
2024/03/16 01:10:56;;;;;;;214.82;204.27;;;;;;;;;;5114904;27;20441;-54
2024/03/16 01:13:22;;;;;;;213.30;202.80;;;;;;;;;;5095802;27;20091;-51
2024/03/16 01:15:47;;;;;;;230.20;218.77;;;;;;;;;;5116874;27;20499;-52
2024/03/16 01:18:13;;;;;;;231.88;220.45;;;;;;;;;;5115995;27;20062;-48
2024/03/16 01:20:43;;;;;;;237.82;226.00;;;;;;;;;;5112891;27;20031;-50
2024/03/16 01:23:08;;;;;;;250.38;237.93;;;;;;;;;;5095173;27;20043;-51
2024/03/16 01:25:33;;;;;;;263.60;250.60;;;;;;;;;;5096847;27;20354;-52
2024/03/16 01:27:59;;;;;;;249.80;237.52;;;;;;;;;;5114527;27;20067;-54
2024/03/16 01:30:24;;;;;;;264.25;251.23;;;;;;;;;;5114748;27;20035;-51
2024/03/16 01:32:50;;;;;;;265.60;252.48;;;;;;;;;;5111906;27;20031;-52
2024/03/16 01:35:15;;;;;;;263.42;250.43;;;;;;;;;;5114654;27;20405;-51
2024/03/16 01:37:40;;;;;;;272.92;259.45;;;;;;;;;;5115481;27;20114;-53
2024/03/16 01:40:06;;;;;;;262.45;249.38;;;;;;;;;;5115460;27;20041;-49
2024/03/16 01:42:32;;;;;;;251.32;238.75;;;;;;;;;;5112445;27;20132;-50
2024/03/16 01:45:07;;;;;;;265.50;252.40;;;;;;;;;;5113703;27;20180;-56
2024/03/16 01:47:32;;;;;;;258.45;245.40;;;;;;;;;;5112742;27;20080;-54
2024/03/16 01:49:59;;;;;;;266.90;253.73;;;;;;;;;;5115102;27;20030;-54
2024/03/16 01:52:26;;;;;;;272.42;258.92;;;;;;;;;;5111756;27;20057;-53
2024/03/16 01:54:51;;;;;;;280.65;266.80;;;;;;;;;;5116933;27;20071;-55
2024/03/16 01:57:16;;;;;;;253.45;240.68;;;;;;;;;;5114753;27;20051;-53
2024/03/16 01:59:42;;;;;;;271.63;258.13;;;;;;;;;;5114559;27;20045;-53
2024/03/16 02:02:32;;;;;;;267.25;254.02;;;;;;;;;;5116545;27;20472;-50
2024/03/16 02:05:00;;;;;;;207.77;197.52;;;;;;;;;;5113490;27;20093;-48
2024/03/16 02:07:25;;;;;;;217.77;206.88;;;;;;;;;;5112954;27;20043;-48
2024/03/16 02:09:51;;;;;;;211.98;201.52;;;;;;;;;;5114559;27;20035;-49
2024/03/16 02:12:17;;;;;;;233.10;221.57;;;;;;;;;;5113961;27;20051;-49
2024/03/16 02:14:42;;;;;;;246.10;233.90;;;;;;;;;;5113922;27;20463;-48
2024/03/16 02:17:10;;;;;;;255.45;242.90;;;;;;;;;;5114409;27;20035;-49
2024/03/16 02:19:38;;;;;;;262.00;249.15;;;;;;;;;;5113035;27;20035;-52
2024/03/16 02:22:05;;;;;;;273.10;259.60;;;;;;;;;;5110748;27;20411;-49
2024/03/16 02:24:33;;;;;;;269.80;256.48;;;;;;;;;;5111830;27;20063;-53
2024/03/16 02:26:59;;;;;;;272.80;259.40;;;;;;;;;;5113260;27;20056;-50
2024/03/16 02:29:27;;;;;;;283.27;269.27;;;;;;;;;;5112383;27;20708;-54
2024/03/16 02:31:53;;;;;;;264.63;251.57;;;;;;;;;;5113094;27;20031;-53
2024/03/16 02:34:18;;;;;;;238.93;226.27;;;;;;;;;;5111282;27;20075;-56
2024/03/16 02:36:44;;;;;;;258.75;245.82;;;;;;;;;;5112923;27;20404;-55
2024/03/16 02:39:11;;;;;;;257.75;245.02;;;;;;;;;;5097483;27;20104;-52
2024/03/16 02:41:37;;;;;;;229.30;218.10;;;;;;;;;;5111479;27;20126;-50
2024/03/16 02:44:03;;;;;;;229.60;218.32;;;;;;;;;;5113674;27;20142;-50
2024/03/16 02:46:28;;;;;;;230.68;219.35;;;;;;;;;;5112377;27;20028;-50
2024/03/16 02:48:53;;;;;;;232.57;221.13;;;;;;;;;;5114211;27;20088;-53
2024/03/16 02:51:19;;;;;;;239.15;227.25;;;;;;;;;;5109942;27;20109;-50
2024/03/16 02:53:44;;;;;;;247.20;235.02;;;;;;;;;;5112291;27;20034;-52
2024/03/16 02:56:09;;;;;;;254.02;241.48;;;;;;;;;;5114074;27;20399;-55
2024/03/16 02:58:35;;;;;;;250.38;237.70;;;;;;;;;;5113830;27;20039;-52
2024/03/16 03:01:00;;;;;;;231.35;219.95;;;;;;;;;;5111933;27;20035;-53
2024/03/16 03:03:25;;;;;;;227.27;216.10;;;;;;;;;;5115266;27;20062;-53
2024/03/16 03:05:52;;;;;;;235.73;224.05;;;;;;;;;;5113628;28;20035;-56
2024/03/16 03:08:18;;;;;;;217.60;206.90;;;;;;;;;;5112770;28;20084;-53
2024/03/16 03:10:43;;;;;;;226.20;214.98;;;;;;;;;;5112131;28;20452;-53
2024/03/16 03:13:08;;;;;;;217.35;206.63;;;;;;;;;;5115968;28;20035;-53
2024/03/16 03:15:35;;;;;;;224.00;212.98;;;;;;;;;;5114384;28;20122;-52
2024/03/16 03:18:01;;;;;;;218.52;207.80;;;;;;;;;;5094319;28;20035;-51
2024/03/16 03:20:26;;;;;;;238.65;226.88;;;;;;;;;;5114197;28;20092;-47
2024/03/16 03:22:51;;;;;;;229.75;218.38;;;;;;;;;;5110480;28;20034;-49
2024/03/16 03:25:18;;;;;;;221.52;210.55;;;;;;;;;;5115422;28;20111;-48
2024/03/16 03:27:44;;;;;;;218.18;207.35;;;;;;;;;;5112948;28;20058;-50
2024/03/16 03:30:10;;;;;;;231.18;219.77;;;;;;;;;;5113596;28;20035;-50
2024/03/16 03:32:35;;;;;;;217.05;206.30;;;;;;;;;;5111189;28;20641;-49
2024/03/16 03:35:01;;;;;;;218.00;207.10;;;;;;;;;;5114059;28;20039;-51
2024/03/16 03:37:26;;;;;;;229.90;218.65;;;;;;;;;;5116042;27;20046;-52
2024/03/16 03:39:52;;;;;;;220.98;210.07;;;;;;;;;;5114602;27;20334;-52
2024/03/16 03:42:19;;;;;;;217.95;207.23;;;;;;;;;;5116503;27;20491;-49
2024/03/16 03:45:00;;;;;;;223.63;212.50;;;;;;;;;;5115184;27;20036;-53
2024/03/16 03:47:40;;;;;;;194.93;185.27;;;;;;;;;;5114096;27;20047;-50
2024/03/16 03:50:06;;;;;;;211.87;201.40;;;;;;;;;;5116388;27;20058;-51
2024/03/16 03:52:32;;;;;;;231.00;219.57;;;;;;;;;;5114246;27;20119;-53
2024/03/16 03:54:57;;;;;;;224.93;213.85;;;;;;;;;;5117515;27;20098;-53
2024/03/16 03:57:22;;;;;;;229.75;218.40;;;;;;;;;;5115176;27;20024;-50
2024/03/16 03:59:48;;;;;;;237.93;226.18;;;;;;;;;;5114326;27;20028;-50
2024/03/16 04:02:13;;;;;;;239.93;227.98;;;;;;;;;;5115214;27;20043;-52
2024/03/16 04:04:40;;;;;;;241.32;229.35;;;;;;;;;;5118011;27;20050;-49
2024/03/16 04:07:05;;;;;;;231.43;219.98;;;;;;;;;;5114491;27;20530;-55
2024/03/16 04:09:31;;;;;;;237.73;225.93;;;;;;;;;;5116568;27;20031;-56
2024/03/16 04:11:56;;;;;;;225.63;214.48;;;;;;;;;;5116239;27;20038;-54
2024/03/16 04:14:22;;;;;;;217.20;206.38;;;;;;;;;;5114051;27;20030;-54
2024/03/16 04:16:48;;;;;;;216.63;205.88;;;;;;;;;;5113929;27;20024;-53
2024/03/16 04:19:15;;;;;;;224.10;212.95;;;;;;;;;;5114778;27;20039;-55
2024/03/16 04:21:43;;;;;;;224.70;213.57;;;;;;;;;;5111859;27;20031;-53
2024/03/16 04:24:09;;;;;;;210.38;199.98;;;;;;;;;;5096470;27;20031;-56
2024/03/16 04:26:34;;;;;;;209.77;199.45;;;;;;;;;;5116595;27;20031;-51
2024/03/16 04:29:00;;;;;;;203.35;193.32;;;;;;;;;;5119447;27;20042;-54
2024/03/16 04:31:25;;;;;;;189.43;179.65;;;;;;;;;;5117622;27;20053;-55
2024/03/16 04:33:51;;;;;;;192.07;182.40;;;;;;;;;;5116138;27;20125;-56
2024/03/16 04:36:16;;;;;;;185.88;176.68;;;;;;;;;;5115604;27;20075;-48
2024/03/16 04:38:42;;;;;;;191.93;182.38;;;;;;;;;;5115281;27;20038;-52
2024/03/16 04:41:08;;;;;;;189.98;180.60;;;;;;;;;;5116242;27;20035;-55
2024/03/16 04:43:34;;;;;;;196.68;187.00;;;;;;;;;;5115543;27;20477;-52
2024/03/16 04:45:59;;;;;;;189.32;179.90;;;;;;;;;;5116029;27;20038;-51
2024/03/16 04:48:25;;;;;;;188.88;179.30;;;;;;;;;;5113495;27;20042;-53
2024/03/16 04:50:50;;;;;;;180.50;171.52;;;;;;;;;;5114196;27;20084;-53
2024/03/16 04:53:15;;;;;;;196.90;187.18;;;;;;;;;;5113994;27;20051;-53
2024/03/16 04:55:41;;;;;;;184.27;175.13;;;;;;;;;;5115840;27;20132;-54
2024/03/16 04:58:07;;;;;;;175.27;166.55;;;;;;;;;;5115693;27;20116;-54
2024/03/16 05:00:34;;;;;;;178.57;169.75;;;;;;;;;;5112708;27;20485;-55
2024/03/16 05:02:59;;;;;;;182.57;173.52;;;;;;;;;;5098248;27;20114;-54
2024/03/16 05:05:25;;;;;;;178.75;169.88;;;;;;;;;;5113920;27;20164;-54
2024/03/16 05:07:50;;;;;;;175.93;166.93;;;;;;;;;;5116117;27;20389;-48
2024/03/16 05:10:16;;;;;;;187.63;178.35;;;;;;;;;;5115206;27;20050;-51
2024/03/16 05:12:41;;;;;;;176.77;168.05;;;;;;;;;;5117580;27;20023;-48
2024/03/16 05:15:08;;;;;;;186.73;176.98;;;;;;;;;;5095678;27;20665;-54
2024/03/16 05:17:35;;;;;;;188.38;179.02;;;;;;;;;;5117728;27;20023;-48
2024/03/16 05:20:01;;;;;;;174.65;166.00;;;;;;;;;;5117771;27;20051;-55
2024/03/16 05:22:26;;;;;;;188.35;178.75;;;;;;;;;;5121201;27;21099;-54
2024/03/16 05:24:52;;;;;;;181.65;172.70;;;;;;;;;;5115196;27;20115;-51
2024/03/16 05:27:17;;;;;;;173.63;164.98;;;;;;;;;;5112748;27;20035;-52
2024/03/16 05:29:43;;;;;;;181.55;172.57;;;;;;;;;;5115950;27;20081;-56
2024/03/16 05:32:08;;;;;;;176.18;167.48;;;;;;;;;;5114079;27;20134;-55
2024/03/16 05:34:33;;;;;;;179.77;170.85;;;;;;;;;;5114465;27;20031;-51
2024/03/16 05:36:59;;;;;;;170.77;162.30;;;;;;;;;;5114946;27;20028;-47
2024/03/16 05:39:24;;;;;;;179.48;170.52;;;;;;;;;;5114637;27;20042;-56
2024/03/16 05:41:50;;;;;;;177.25;168.45;;;;;;;;;;5112635;27;20135;-52
2024/03/16 05:44:15;;;;;;;177.45;168.65;;;;;;;;;;5114268;27;20023;-55
2024/03/16 05:46:40;;;;;;;173.65;165.05;;;;;;;;;;5114850;27;20039;-55
2024/03/16 05:49:06;;;;;;;168.75;160.38;;;;;;;;;;5114756;27;20448;-49
2024/03/16 05:51:31;;;;;;;163.02;154.95;;;;;;;;;;5112589;27;20660;-48
2024/03/16 05:53:57;;;;;;;159.35;151.45;;;;;;;;;;5096316;27;20031;-49
2024/03/16 05:56:22;;;;;;;157.68;149.82;;;;;;;;;;5096478;27;20036;-51
2024/03/16 05:58:48;;;;;;;163.32;155.23;;;;;;;;;;5113510;27;20050;-49
2024/03/16 06:01:15;;;;;;;148.52;141.15;;;;;;;;;;5115089;27;20970;-52
2024/03/16 06:03:41;;;;;;;156.05;148.35;;;;;;;;;;5116243;27;20028;-49
2024/03/16 06:06:06;;;;;;;160.68;152.73;;;;;;;;;;5113755;27;20024;-53
2024/03/16 06:08:33;;;;;;;148.98;141.57;;;;;;;;;;5115040;27;20059;-55
2024/03/16 06:10:59;;;;;;;161.55;153.40;;;;;;;;;;5115169;27;20026;-54
2024/03/16 06:13:24;;;;;;;152.80;145.20;;;;;;;;;;5114295;27;20109;-54
2024/03/16 06:15:50;;;;;;;147.65;140.30;;;;;;;;;;5115543;27;20051;-50
2024/03/16 06:18:15;;;;;;;143.63;136.50;;;;;;;;;;5095066;27;20088;-53
2024/03/16 06:20:41;;;;;;;156.30;148.57;;;;;;;;;;5109746;27;20115;-47
2024/03/16 06:23:06;;;;;;;160.02;152.10;;;;;;;;;;5112130;27;20043;-49
2024/03/16 06:25:46;;;;;;;149.05;141.63;;;;;;;;;;5115034;27;20033;-55
2024/03/16 06:28:11;;;;;;;152.45;144.73;;;;;;;;;;5112436;27;20092;-47
2024/03/16 06:30:37;;;;;;;164.05;155.82;;;;;;;;;;5111343;27;20039;-53
2024/03/16 06:33:05;;;;;;;166.88;158.38;;;;;;;;;;5112243;27;20047;-50
2024/03/16 06:35:33;;;;;;;177.10;168.20;;;;;;;;;;5112072;27;20042;-49
2024/03/16 06:37:59;;;;;;;209.93;199.50;;;;;;;;;;5114451;27;20035;-49
2024/03/16 06:40:25;;;;;;;212.38;201.90;;;;;;;;;;5111532;27;20058;-47
2024/03/16 06:42:50;;;;;;;209.73;199.43;;;;;;;;;;5113463;27;20118;-48
2024/03/16 06:45:16;;;;;;;230.65;219.32;;;;;;;;;;5111970;27;20110;-48
2024/03/16 06:47:41;;;;;;;236.80;225.18;;;;;;;;;;5109190;27;20031;-50
2024/03/16 06:50:07;;;;;;;229.77;218.50;;;;;;;;;;5112286;27;21304;-55
2024/03/16 06:52:33;;;;;;;223.40;212.45;;;;;;;;;;5112196;27;20039;-54
2024/03/16 06:54:58;;;;;;;219.18;208.25;;;;;;;;;;5112067;28;20096;-53
2024/03/16 06:57:24;;;;;;;222.45;211.50;;;;;;;;;;5114656;27;20109;-55
2024/03/16 06:59:50;;;;;;;217.00;206.35;;;;;;;;;;5112835;27;20027;-51
2024/03/16 07:02:15;;;;;;;215.68;205.13;;;;;;;;;;5096796;28;20027;-51
2024/03/16 07:04:41;;;;;;;219.55;208.80;;;;;;;;;;5109936;27;20035;-49
2024/03/16 07:07:06;;;;;;;222.20;211.27;;;;;;;;;;5113534;27;20060;-51
2024/03/16 07:09:31;;;;;;;224.85;213.82;;;;;;;;;;5111540;27;20041;-48
2024/03/16 07:11:57;;;;;;;235.40;223.65;;;;;;;;;;5110160;28;20036;-48
2024/03/16 07:14:22;;;;;;;226.70;215.55;;;;;;;;;;5113219;28;20090;-48
2024/03/16 07:16:47;;;;;;;238.48;226.68;;;;;;;;;;5112429;28;20028;-48
2024/03/16 07:19:13;;;;;;;241.07;229.20;;;;;;;;;;5113012;28;20066;-51
2024/03/16 07:21:38;;;;;;;243.27;231.35;;;;;;;;;;5112420;28;20023;-49
2024/03/16 07:24:04;;;;;;;227.68;216.50;;;;;;;;;;5114701;28;20711;-48
2024/03/16 07:26:29;;;;;;;219.90;208.68;;;;;;;;;;5114704;28;20535;-52
2024/03/16 07:28:55;;;;;;;214.93;204.32;;;;;;;;;;5110637;28;20114;-51
2024/03/16 07:31:21;;;;;;;184.88;175.75;;;;;;;;;;5114755;28;20500;-49
2024/03/16 07:33:46;;;;;;;170.55;162.10;;;;;;;;;;5109567;28;20035;-48
2024/03/16 07:36:12;;;;;;;156.70;149.00;;;;;;;;;;5113376;28;20119;-50
2024/03/16 07:38:38;;;;;;;170.38;162.05;;;;;;;;;;5113179;28;20401;-51
2024/03/16 07:41:04;;;;;;;166.75;157.98;;;;;;;;;;5113228;28;20066;-51
2024/03/16 07:43:30;;;;;;;165.18;156.65;;;;;;;;;;5114416;28;20487;-51
2024/03/16 07:45:56;;;;;;;166.30;158.02;;;;;;;;;;5092476;28;20028;-52
2024/03/16 07:48:22;;;;;;;159.60;151.55;;;;;;;;;;5110376;28;20417;-52
2024/03/16 07:50:47;;;;;;;158.13;150.25;;;;;;;;;;5109359;28;20040;-53
2024/03/16 07:53:12;;;;;;;164.73;156.43;;;;;;;;;;5110374;28;20058;-53
2024/03/16 07:55:38;;;;;;;167.27;159.00;;;;;;;;;;5112823;28;20136;-51
2024/03/16 07:58:04;;;;;;;164.82;156.63;;;;;;;;;;5110692;28;20723;-51
2024/03/16 08:00:29;;;;;;;155.55;147.75;;;;;;;;;;5111301;28;20046;-51
2024/03/16 08:02:55;;;;;;;165.55;157.40;;;;;;;;;;5094134;28;20031;-48
2024/03/16 08:05:20;;;;;;;180.05;170.98;;;;;;;;;;5093220;28;20473;-49
2024/03/16 08:07:47;;;;;;;193.82;183.25;;;;;;;;;;5112552;28;20031;-47
2024/03/16 08:10:13;;;;;;;165.18;156.90;;;;;;;;;;5112624;28;20023;-49
2024/03/16 08:12:38;;;;;;;161.57;153.52;;;;;;;;;;5113558;28;20085;-49
2024/03/16 08:15:05;;;;;;;176.93;168.20;;;;;;;;;;5113993;28;20457;-51
2024/03/16 08:17:31;;;;;;;154.70;146.98;;;;;;;;;;5111907;28;20404;-48
2024/03/16 08:19:57;;;;;;;178.73;169.88;;;;;;;;;;5111050;28;20035;-48
2024/03/16 08:22:23;;;;;;;136.35;129.57;;;;;;;;;;5113166;27;20031;-51
2024/03/16 08:24:48;;;;;;;137.13;130.35;;;;;;;;;;5117494;27;20520;-52
2024/03/16 08:27:14;;;;;;;113.28;107.65;;;;;;;;;;5115354;27;20054;-52
2024/03/16 08:29:39;;;;;;;83.15;78.93;;;;;;;;;;5098416;27;20602;-48
2024/03/16 08:32:05;;;;;;;64.00;60.80;;;;;;;;;;5098422;27;20031;-50
2024/03/16 08:34:30;;;;;;;68.90;65.18;;;;;;;;;;5115488;27;20064;-51
2024/03/16 08:36:56;;;;;;;63.30;60.13;;;;;;;;;;5117305;27;20057;-56
2024/03/16 08:39:23;;;;;;;74.35;70.65;;;;;;;;;;5117065;27;20047;-56
2024/03/16 08:41:49;;;;;;;66.13;62.83;;;;;;;;;;5110083;27;20031;-55
2024/03/16 08:44:14;;;;;;;60.05;56.85;;;;;;;;;;5115822;27;20034;-57
2024/03/16 08:46:39;;;;;;;54.60;51.85;;;;;;;;;;5093517;27;20491;-55
2024/03/16 08:49:05;;;;;;;59.03;56.08;;;;;;;;;;5116870;27;20095;-55
2024/03/16 08:51:30;;;;;;;55.30;52.50;;;;;;;;;;5112366;27;20413;-55
2024/03/16 08:53:56;;;;;;;59.05;56.03;;;;;;;;;;5115261;27;20038;-54
2024/03/16 08:56:23;;;;;;;57.80;54.90;;;;;;;;;;5111016;27;20042;-56
2024/03/16 08:58:49;;;;;;;55.15;52.38;;;;;;;;;;5114485;27;20062;-55
2024/03/16 09:01:14;;;;;;;60.92;57.85;;;;;;;;;;5111658;27;20067;-51
2024/03/16 09:03:40;;;;;;;56.33;53.50;;;;;;;;;;5116433;27;20080;-53
2024/03/16 09:06:07;;;;;;;55.08;52.28;;;;;;;;;;5094733;27;20027;-57
2024/03/16 09:08:32;;;;;;;58.47;54.97;;;;;;;;;;5119784;27;20031;-50
2024/03/16 09:10:58;;;;;;;59.50;56.53;;;;;;;;;;5117884;27;20039;-47
2024/03/16 09:13:24;;;;;;;64.88;61.58;;;;;;;;;;5117453;27;20456;-49
2024/03/16 09:15:49;;;;;;;64.45;61.05;;;;;;;;;;5114115;27;20031;-57
2024/03/16 09:18:14;;;;;;;62.88;59.75;;;;;;;;;;5116913;27;20035;-50
2024/03/16 09:20:43;;;;;;;37.80;35.88;;;;;;;;;;5114654;27;20532;-55
2024/03/16 09:23:09;;;;;;;34.53;32.70;;;;;;;;;;5116245;27;20047;-57
2024/03/16 09:25:34;;;;;;;30.33;28.73;;;;;;;;;;5117483;27;20027;-54
2024/03/16 09:28:00;;;;;;;33.75;32.03;;;;;;;;;;5117138;27;20035;-56
2024/03/16 09:30:25;;;;;;;28.65;27.15;;;;;;;;;;5116828;27;20035;-56
2024/03/16 09:32:50;;;;;;;30.05;28.45;;;;;;;;;;5113883;27;20154;-56
2024/03/16 09:35:16;;;;;;;32.22;30.33;;;;;;;;;;5113226;27;20046;-57
2024/03/16 09:37:41;;;;;;;31.48;29.88;;;;;;;;;;5117965;27;20042;-49
2024/03/16 09:40:10;;;;;;;36.53;34.63;;;;;;;;;;5116802;27;20043;-48
2024/03/16 09:42:38;;;;;;;31.00;29.30;;;;;;;;;;5117998;27;20080;-57
2024/03/16 09:45:17;;;;;;;33.25;31.45;;;;;;;;;;5114046;27;20186;-56
2024/03/16 09:47:44;;;;;;;32.22;30.52;;;;;;;;;;5114439;27;20073;-52
2024/03/16 09:50:10;;;;;;;36.90;35.00;;;;;;;;;;5077564;27;20043;-52
2024/03/16 09:52:41;;;;;;;32.10;30.45;;;;;;;;;;5117741;27;20042;-48
2024/03/16 09:55:09;;;;;;;;;;;;;;;;;;5116242;27;20069;-57
2024/03/16 09:57:36;;;;;;;32.05;30.35;;;;;;;;;;5111928;27;20406;-56
2024/03/16 10:00:05;;;;;;;33.17;31.48;;;;;;;;;;5094584;27;20583;-51
2024/03/16 10:02:31;;;;;;;32.33;30.65;;;;;;;;;;5114937;27;20066;-57
2024/03/16 10:04:57;;;;;;;34.13;32.38;;;;;;;;;;5114157;27;20373;-58
2024/03/16 10:07:22;;;;;;;35.47;33.65;;;;;;;;;;5117326;27;20034;-57
2024/03/16 10:09:55;;;;;;;42.30;40.15;;;;;;;;;;5109676;27;20035;-57
2024/03/16 10:12:22;;;;;;;39.63;37.60;;;;;;;;;;5114350;27;20062;-57
2024/03/16 10:15:22;;;;;;;37.85;35.90;;;;;;;;;;5112480;27;20027;-57
2024/03/16 10:17:50;;;;;;;46.38;44.03;;;;;;;;;;5114499;27;20019;-58
2024/03/16 10:20:16;;;;;;;37.78;35.88;;;;;;;;;;5108183;27;20028;-57
2024/03/16 10:22:48;;;;;;;38.22;36.28;;;;;;;;;;5113328;27;20041;-57
2024/03/16 10:25:15;;;;;;;48.75;46.28;;;;;;;;;;5111432;27;20043;-57
2024/03/16 10:27:45;;;;;;;39.05;37.05;;;;;;;;;;5117352;27;20020;-57
2024/03/16 10:30:16;;;;;;;41.42;39.33;;;;;;;;;;5113824;27;20031;-58
2024/03/16 10:32:54;;;;;;;43.63;41.40;;;;;;;;;;5114409;27;20562;-57
2024/03/16 10:35:25;;;;;;;53.40;50.70;;;;;;;;;;5113744;27;20020;-57
2024/03/16 10:37:51;;;;;;;53.92;51.20;;;;;;;;;;5113289;27;20032;-58
2024/03/16 10:40:19;;;;;;;61.63;58.53;;;;;;;;;;5112138;27;20130;-48
2024/03/16 10:42:50;;;;;;;63.25;60.08;;;;;;;;;;5118458;27;20090;-49
2024/03/16 10:45:20;;;;;;;80.18;76.18;;;;;;;;;;5076051;27;20372;-48
2024/03/16 10:47:52;;;;;;;108.95;103.55;;;;;;;;;;5114727;27;20469;-48
2024/03/16 10:50:20;;;;;;;111.90;106.38;;;;;;;;;;5114949;27;20460;-48
2024/03/16 10:52:48;;;;;;;106.35;100.80;;;;;;;;;;5113823;27;20114;-48
2024/03/16 10:55:22;;;;;;;119.00;113.03;;;;;;;;;;5109987;27;20346;-56
2024/03/16 10:57:49;;;;;;;143.82;136.65;;;;;;;;;;5112730;27;20043;-57
2024/03/16 11:00:20;;;;;;;158.07;150.00;;;;;;;;;;5113911;27;20396;-57
2024/03/16 11:03:27;;;;;;;194.05;184.32;;;;;;;;;;5115410;27;20027;-57
2024/03/16 11:06:01;;;;;;;221.85;210.75;;;;;;;;;;5093396;28;20511;-51
2024/03/16 11:08:44;;;;;;;232.65;221.00;;;;;;;;;;5113705;27;20085;-57
2024/03/16 11:11:10;;;;;;;247.82;235.52;;;;;;;;;;5109334;28;20050;-58
2024/03/16 11:13:36;;;;;;;243.60;231.50;;;;;;;;;;5094113;28;20032;-57
2024/03/16 11:16:25;;;;;;;262.40;249.38;;;;;;;;;;5111978;28;20037;-58
2024/03/16 11:18:54;;;;;;;264.50;251.35;;;;;;;;;;5097392;28;20062;-52
2024/03/16 11:21:20;;;;;;;226.48;215.23;;;;;;;;;;5108923;28;20417;-52
2024/03/16 11:23:47;;;;;;;198.43;188.52;;;;;;;;;;5115429;28;20370;-55
2024/03/16 11:26:27;;;;;;;180.20;171.30;;;;;;;;;;5109391;28;20027;-56
2024/03/16 11:29:05;;;;;;;137.73;130.77;;;;;;;;;;5113699;28;20126;-53
2024/03/16 11:31:39;;;;;;;74.03;70.35;;;;;;;;;;5111932;28;20055;-51
2024/03/16 11:34:08;;;;;;;71.07;67.55;;;;;;;;;;5109102;28;20036;-51
2024/03/16 11:36:35;;;;;;;99.03;94.10;;;;;;;;;;5109545;28;20023;-51
2024/03/16 11:39:10;;;;;;;93.97;89.32;;;;;;;;;;5108635;28;20035;-52
2024/03/16 11:41:38;;;;;;;95.57;90.80;;;;;;;;;;5114521;28;20105;-50
2024/03/16 11:44:06;;;;;;;77.28;73.45;;;;;;;;;;5110892;28;20475;-62
2024/03/16 11:46:32;;;;;;;104.65;99.47;;;;;;;;;;5114214;28;20154;-63
2024/03/16 11:49:00;;;;;;;69.63;66.15;;;;;;;;;;5113179;28;20717;-63
2024/03/16 11:51:28;;;;;;;44.92;42.65;;;;;;;;;;5112185;28;20047;-62
2024/03/16 11:53:54;;;;;;;43.20;41.03;;;;;;;;;;5094709;28;20037;-62
2024/03/16 11:56:22;;;;;;;49.08;46.58;;;;;;;;;;5114927;28;20136;-62
2024/03/16 11:58:50;;;;;;;45.38;43.08;;;;;;;;;;5116897;27;20115;-62
2024/03/16 12:01:21;;;;;;;30.00;28.40;;;;;;;;;;5112288;27;20077;-61
2024/03/16 12:03:48;;;;;;;28.92;27.40;;;;;;;;;;5118386;27;20414;-62
2024/03/16 12:06:14;;;;;;;29.23;27.73;;;;;;;;;;5114182;27;20673;-61
2024/03/16 12:08:40;;;;;;;29.98;28.40;;;;;;;;;;5118216;27;20014;-61
2024/03/16 12:11:08;;;;;;;30.20;28.63;;;;;;;;;;5115273;27;20142;-62
2024/03/16 12:13:34;;;;;;;28.55;27.05;;;;;;;;;;5115063;27;20088;-62
2024/03/16 12:15:59;;;;;;;38.28;36.17;;;;;;;;;;5114789;27;20314;-62
2024/03/16 12:18:26;;;;;;;27.65;26.20;;;;;;;;;;5114531;27;20100;-62
2024/03/16 12:20:54;;;;;;;29.77;28.17;;;;;;;;;;5114399;27;20067;-62
2024/03/16 12:23:19;;;;;;;33.15;31.42;;;;;;;;;;5117011;27;20032;-62
2024/03/16 12:25:46;;;;;;;32.35;30.67;;;;;;;;;;5117653;27;20111;-62
2024/03/16 12:28:11;;;;;;;44.95;42.65;;;;;;;;;;5115205;27;20039;-62
2024/03/16 12:30:37;;;;;;;51.38;48.78;;;;;;;;;;5118078;27;20019;-62
2024/03/16 12:33:10;;;;;;;70.97;67.43;;;;;;;;;;5114744;27;20050;-63
2024/03/16 12:35:35;;;;;;;66.50;63.17;;;;;;;;;;5114764;27;20035;-63
2024/03/16 12:38:02;;;;;;;79.45;75.50;;;;;;;;;;5117824;27;20015;-62
2024/03/16 12:40:27;;;;;;;73.57;69.93;;;;;;;;;;5114077;27;20104;-62
2024/03/16 12:42:54;;;;;;;66.90;63.60;;;;;;;;;;5116891;27;20038;-63
2024/03/16 12:45:19;;;;;;;64.88;61.60;;;;;;;;;;5113704;27;20599;-63
2024/03/16 12:47:46;;;;;;;71.68;68.10;;;;;;;;;;5116362;27;20046;-63
2024/03/16 12:50:11;;;;;;;77.43;73.55;;;;;;;;;;5113521;27;20503;-63
2024/03/16 12:52:37;;;;;;;48.30;45.90;;;;;;;;;;5116187;27;20047;-63
2024/03/16 12:55:02;;;;;;;54.17;51.38;;;;;;;;;;5117699;27;20034;-63
2024/03/16 12:57:31;;;;;;;50.38;47.83;;;;;;;;;;5117020;27;20058;-63
2024/03/16 12:59:56;;;;;;;43.95;41.72;;;;;;;;;;5115571;27;20046;-63
2024/03/16 13:02:22;;;;;;;49.35;46.83;;;;;;;;;;5096055;27;20035;-62
2024/03/16 13:04:47;;;;;;;42.58;40.38;;;;;;;;;;5117094;27;20034;-63
2024/03/16 13:07:14;;;;;;;41.08;38.97;;;;;;;;;;5115686;27;20130;-62
2024/03/16 13:09:39;;;;;;;57.45;54.50;;;;;;;;;;5113011;27;20036;-61
2024/03/16 13:12:10;;;;;;;43.08;40.83;;;;;;;;;;5121769;27;20468;-62
2024/03/16 13:14:36;;;;;;;;;;;;;;;;;;5117809;27;20035;-62
2024/03/16 13:17:01;;;;;;;39.63;37.63;;;;;;;;;;5116551;27;19963;-62
2024/03/16 13:19:26;;;;;;;38.10;36.13;;;;;;;;;;5112791;27;20122;-60
2024/03/16 13:21:52;;;;;;;39.35;37.22;;;;;;;;;;5115312;27;20038;-61
2024/03/16 13:24:19;;;;;;;38.15;36.20;;;;;;;;;;5114336;27;20027;-61
2024/03/16 13:26:44;;;;;;;29.42;27.88;;;;;;;;;;5112977;27;20091;-62
2024/03/16 13:29:09;;;;;;;32.22;30.55;;;;;;;;;;5111306;27;20035;-57
2024/03/16 13:31:35;;;;;;;39.33;37.33;;;;;;;;;;5111758;27;20024;-60
2024/03/16 13:34:01;;;;;;;36.88;34.97;;;;;;;;;;5113787;27;20669;-62
2024/03/16 13:36:28;;;;;;;30.73;29.13;;;;;;;;;;5111864;27;20069;-61
2024/03/16 13:38:54;;;;;;;39.28;37.28;;;;;;;;;;5117504;27;20036;-60
2024/03/16 13:41:20;;;;;;;33.20;31.50;;;;;;;;;;5095671;27;20042;-61
2024/03/16 13:43:45;;;;;;;27.80;26.33;;;;;;;;;;5113300;27;20051;-60
2024/03/16 13:46:18;;;;;;;31.65;29.95;;;;;;;;;;5114121;27;20041;-56
2024/03/16 13:48:57;;;;;;;32.05;30.35;;;;;;;;;;5112077;27;20043;-61
2024/03/16 13:51:26;;;;;;;31.42;29.63;;;;;;;;;;5114113;27;20039;-59
2024/03/16 13:53:55;;;;;;;31.75;30.10;;;;;;;;;;5113584;27;20027;-61
2024/03/16 13:56:21;;;;;;;24.52;23.23;;;;;;;;;;5113481;27;20368;-61
2024/03/16 13:58:46;;;;;;;31.05;29.40;;;;;;;;;;5112239;27;20042;-61